createdAt,value
2022-12-20T00:01:36.210Z,63.87
2022-12-20T00:04:06.069Z,63.50
2022-12-20T00:06:37.182Z,63.87
2022-12-20T00:09:07.817Z,62.93
2022-12-20T00:11:36.020Z,60.80
2022-12-20T00:14:03.467Z,68.73
2022-12-20T00:16:31.247Z,69.57
2022-12-20T00:19:02.696Z,66.10
2022-12-20T00:21:31.578Z,68.07
2022-12-20T00:23:59.331Z,65.97
2022-12-20T00:26:30.807Z,61.93
2022-12-20T00:29:00.019Z,67.90
2022-12-20T00:31:30.451Z,70.10
2022-12-20T00:34:14.334Z,67.07
2022-12-20T00:36:48.406Z,68.63
2022-12-20T00:39:15.743Z,73.30
2022-12-20T00:41:43.629Z,66.87
2022-12-20T00:44:11.106Z,70.33
2022-12-20T00:46:38.449Z,65.50
2022-12-20T00:49:07.451Z,67.50
2022-12-20T00:51:34.833Z,68.60
2022-12-20T00:54:02.337Z,62.80
2022-12-20T00:56:30.184Z,62.10
2022-12-20T00:59:00.439Z,67.33
2022-12-20T01:01:34.926Z,66.00
2022-12-20T01:04:02.919Z,68.37
2022-12-20T01:06:31.709Z,76.97
2022-12-20T01:08:59.964Z,67.97
2022-12-20T01:11:39.748Z,67.43
2022-12-20T01:14:13.846Z,71.40
2022-12-20T01:16:45.475Z,70.83
2022-12-20T01:19:17.929Z,70.30
2022-12-20T01:21:45.926Z,67.77
2022-12-20T01:24:20.132Z,63.03
2022-12-20T01:26:48.509Z,58.87
2022-12-20T01:29:16.518Z,58.57
2022-12-20T01:31:44.546Z,55.63
2022-12-20T01:34:12.489Z,52.57
2022-12-20T01:36:40.556Z,48.30
2022-12-20T01:39:15.157Z,53.10
2022-12-20T01:41:45.444Z,47.27
2022-12-20T01:44:19.136Z,42.93
2022-12-20T01:46:49.403Z,40.27
2022-12-20T01:49:33.755Z,45.87
2022-12-20T01:52:11.377Z,50.83
2022-12-20T01:54:53.779Z,49.27
2022-12-20T01:57:38.748Z,49.07
2022-12-20T02:00:09.041Z,47.47
2022-12-20T02:02:42.592Z,47.47
2022-12-20T02:05:11.706Z,40.50
2022-12-20T02:07:39.429Z,40.90
2022-12-20T02:10:09.616Z,43.40
2022-12-20T02:12:48.814Z,43.27
2022-12-20T02:15:25.090Z,49.43
2022-12-20T02:18:07.595Z,49.37
2022-12-20T02:21:18.503Z,53.50
2022-12-20T02:24:25.655Z,58.23
2022-12-20T02:27:17.230Z,59.27
2022-12-20T02:30:08.314Z,66.20
2022-12-20T02:33:01.897Z,54.50
2022-12-20T02:35:34.568Z,57.93
2022-12-20T02:38:35.046Z,53.63
2022-12-20T02:41:15.183Z,60.10
2022-12-20T02:44:29.938Z,60.50
2022-12-20T02:47:01.458Z,54.87
2022-12-20T02:49:34.706Z,48.43
2022-12-20T02:52:05.105Z,47.70
2022-12-20T02:54:33.766Z,49.13
2022-12-20T02:57:23.888Z,44.90
2022-12-20T03:00:31.295Z,48.27
2022-12-20T03:03:20.895Z,39.40
2022-12-20T03:05:52.229Z,40.67
2022-12-20T03:08:26.536Z,51.80
2022-12-20T03:10:55.490Z,46.37
2022-12-20T03:13:35.568Z,39.47
2022-12-20T03:16:21.655Z,40.33
2022-12-20T03:18:49.283Z,40.23
2022-12-20T03:21:16.744Z,39.60
2022-12-20T03:23:44.316Z,41.07
2022-12-20T03:26:11.768Z,42.97
2022-12-20T03:28:44.407Z,35.97
2022-12-20T03:31:15.731Z,49.30
2022-12-20T03:33:48.059Z,52.60
2022-12-20T03:36:15.803Z,52.73
2022-12-20T03:38:43.610Z,57.87
2022-12-20T03:41:11.131Z,50.63
2022-12-20T03:43:38.602Z,52.40
2022-12-20T03:46:06.580Z,53.60
2022-12-20T03:48:38.737Z,57.63
2022-12-20T03:51:06.981Z,57.43
2022-12-20T03:53:35.612Z,62.83
2022-12-20T03:56:03.675Z,55.73
2022-12-20T03:58:31.653Z,63.33
2022-12-20T04:01:00.103Z,62.73
2022-12-20T04:03:40.519Z,61.90
2022-12-20T04:06:08.254Z,65.00
2022-12-20T04:08:35.944Z,65.40
2022-12-20T04:11:16.283Z,56.83
2022-12-20T04:13:55.549Z,57.33
2022-12-20T04:16:27.443Z,54.47
2022-12-20T04:18:56.124Z,53.90
2022-12-20T04:21:27.791Z,60.07
2022-12-20T04:24:00.135Z,59.67
2022-12-20T04:26:37.766Z,61.90
2022-12-20T04:29:05.244Z,61.30
2022-12-20T04:31:33.764Z,56.27
2022-12-20T04:34:01.493Z,51.10
2022-12-20T04:36:31.236Z,60.70
2022-12-20T04:39:00.592Z,54.07
2022-12-20T04:41:31.020Z,59.80
2022-12-20T04:44:04.479Z,60.90
2022-12-20T04:46:39.012Z,54.27
2022-12-20T04:49:11.446Z,56.70
2022-12-20T04:51:42.428Z,53.10
2022-12-20T04:54:11.697Z,58.53
2022-12-20T04:56:47.327Z,55.83
2022-12-20T04:59:20.487Z,61.13
2022-12-20T05:01:51.446Z,57.03
2022-12-20T05:04:37.905Z,56.03
2022-12-20T05:07:06.230Z,54.23
2022-12-20T05:09:35.473Z,65.03
2022-12-20T05:12:03.051Z,61.40
2022-12-20T05:14:32.807Z,58.30
2022-12-20T05:17:00.584Z,60.43
2022-12-20T05:19:29.283Z,67.40
2022-12-20T05:22:15.897Z,53.70
2022-12-20T05:25:13.465Z,61.00
2022-12-20T05:27:42.349Z,54.83
2022-12-20T05:30:10.981Z,59.73
2022-12-20T05:32:38.512Z,60.50
2022-12-20T05:35:06.282Z,55.50
2022-12-20T05:37:34.943Z,60.93
2022-12-20T05:40:11.218Z,63.07
2022-12-20T05:42:39.120Z,60.47
2022-12-20T05:45:07.542Z,62.53
2022-12-20T05:47:45.206Z,62.50
2022-12-20T05:50:18.540Z,56.40
2022-12-20T05:53:11.616Z,54.40
2022-12-20T05:55:51.488Z,55.63
2022-12-20T05:58:20.257Z,62.77
2022-12-20T06:00:54.404Z,55.50
2022-12-20T06:03:23.196Z,57.13
2022-12-20T06:05:51.194Z,52.97
2022-12-20T06:08:25.603Z,60.20
2022-12-20T06:10:53.982Z,59.80
2022-12-20T06:13:22.814Z,54.97
2022-12-20T06:15:53.868Z,46.43
2022-12-20T06:18:23.027Z,56.10
2022-12-20T06:20:55.567Z,56.20
2022-12-20T06:23:25.136Z,54.17
2022-12-20T06:26:09.233Z,56.17
2022-12-20T06:28:46.097Z,59.47
2022-12-20T06:31:14.436Z,54.87
2022-12-20T06:33:45.222Z,56.50
2022-12-20T06:36:15.961Z,55.77
2022-12-20T06:38:44.426Z,56.57
2022-12-20T06:41:12.121Z,53.50
2022-12-20T06:43:40.407Z,53.30
2022-12-20T06:46:09.124Z,57.10
2022-12-20T06:48:37.663Z,57.97
2022-12-20T06:51:07.677Z,56.67
2022-12-20T06:53:35.373Z,62.77
2022-12-20T06:56:03.340Z,52.57
2022-12-20T06:58:32.411Z,53.23
2022-12-20T07:01:00.932Z,61.97
2022-12-20T07:03:28.572Z,62.17
2022-12-20T07:05:56.303Z,59.80
2022-12-20T07:08:25.078Z,70.37
2022-12-20T07:10:52.919Z,64.07
2022-12-20T07:13:21.001Z,69.37
2022-12-20T07:15:48.546Z,65.23
2022-12-20T07:18:16.046Z,61.03
2022-12-20T07:20:43.403Z,61.67
2022-12-20T07:23:11.121Z,70.43
2022-12-20T07:25:38.529Z,61.40
2022-12-20T07:28:06.011Z,70.40
2022-12-20T07:30:33.324Z,68.17
2022-12-20T07:33:00.895Z,70.97
2022-12-20T07:35:28.650Z,74.47
2022-12-20T07:37:56.179Z,72.23
2022-12-20T07:40:24.278Z,66.33
2022-12-20T07:42:52.268Z,73.20
2022-12-20T07:45:19.910Z,74.53
2022-12-20T07:47:47.611Z,72.97
2022-12-20T07:50:15.192Z,62.07
2022-12-20T07:52:46.207Z,65.63
2022-12-20T07:55:14.519Z,68.97
2022-12-20T07:57:53.001Z,74.47
2022-12-20T08:00:20.873Z,71.30
2022-12-20T08:03:23.746Z,74.60
2022-12-20T08:05:57.083Z,68.23
2022-12-20T08:08:25.158Z,63.83
2022-12-20T08:10:52.893Z,71.87
2022-12-20T08:13:20.439Z,63.87
2022-12-20T08:15:47.875Z,65.47
2022-12-20T08:18:16.398Z,68.53
2022-12-20T08:20:43.858Z,67.33
2022-12-20T08:23:11.279Z,69.37
2022-12-20T08:25:41.787Z,68.20
2022-12-20T08:28:10.087Z,77.17
2022-12-20T08:30:38.159Z,70.80
2022-12-20T08:33:05.842Z,68.87
2022-12-20T08:35:33.489Z,72.37
2022-12-20T08:38:01.181Z,87.80
2022-12-20T08:40:28.635Z,78.13
2022-12-20T08:42:56.213Z,81.93
2022-12-20T08:45:23.528Z,71.30
2022-12-20T08:47:50.946Z,72.87
2022-12-20T08:50:21.193Z,65.77
2022-12-20T08:52:48.541Z,74.97
2022-12-20T08:55:15.916Z,72.40
2022-12-20T08:57:43.310Z,87.53
2022-12-20T09:00:11.669Z,70.93
2022-12-20T09:02:41.310Z,80.43
2022-12-20T09:05:09.585Z,83.63
2022-12-20T09:07:36.893Z,77.03
2022-12-20T09:10:04.728Z,79.97
2022-12-20T09:12:31.966Z,85.17
2022-12-20T09:14:59.347Z,85.03
2022-12-20T09:17:26.872Z,86.30
2022-12-20T09:19:55.249Z,89.80
2022-12-20T09:22:22.710Z,88.40
2022-12-20T09:24:50.134Z,81.20
2022-12-20T09:27:17.490Z,82.47
2022-12-20T09:29:44.807Z,87.67
2022-12-20T09:32:13.167Z,79.77
2022-12-20T09:34:40.597Z,81.70
2022-12-20T09:37:07.933Z,92.10
2022-12-20T09:39:35.307Z,89.77
2022-12-20T09:42:09.375Z,82.50
2022-12-20T09:44:41.222Z,91.17
2022-12-20T09:47:18.660Z,83.37
2022-12-20T09:49:51.012Z,88.60
2022-12-20T09:52:48.633Z,79.97
2022-12-20T09:55:50.950Z,77.53
2022-12-20T09:58:56.709Z,77.87
2022-12-20T10:01:31.199Z,76.80
2022-12-20T10:04:07.063Z,67.00
2022-12-20T10:07:08.671Z,72.30
2022-12-20T10:10:02.180Z,69.13
2022-12-20T10:13:02.506Z,62.70
2022-12-20T10:15:43.019Z,64.13
2022-12-20T10:18:52.417Z,64.40
2022-12-20T10:21:34.648Z,65.53
2022-12-20T10:24:17.319Z,68.23
2022-12-20T10:26:46.524Z,64.30
2022-12-20T10:29:16.284Z,59.33
2022-12-20T10:31:43.649Z,58.43
2022-12-20T10:34:11.012Z,57.83
2022-12-20T10:36:38.580Z,58.63
2022-12-20T10:39:09.148Z,57.57
2022-12-20T10:41:45.088Z,61.47
2022-12-20T10:44:19.286Z,51.07
2022-12-20T10:47:23.589Z,51.87
2022-12-20T10:49:50.717Z,48.17
2022-12-20T10:52:18.440Z,46.20
2022-12-20T10:54:47.195Z,47.93
2022-12-20T10:57:25.185Z,46.20
2022-12-20T11:00:00.272Z,45.83
2022-12-20T11:02:42.447Z,39.03
2022-12-20T11:05:12.883Z,41.80
2022-12-20T11:11:22.523Z,39.60
2022-12-20T11:13:51.537Z,32.47
2022-12-20T11:16:34.995Z,36.67
2022-12-20T11:19:51.633Z,34.90
2022-12-20T11:22:46.524Z,32.03
2022-12-20T11:25:48.112Z,28.17
2022-12-20T11:28:41.088Z,28.07
2022-12-20T11:31:44.380Z,33.53
2022-12-20T11:34:36.162Z,26.60
2022-12-20T11:37:20.776Z,29.83
2022-12-20T11:40:14.111Z,29.10
2022-12-20T11:42:57.571Z,29.37
2022-12-20T11:45:31.930Z,27.97
2022-12-20T11:48:38.384Z,27.80
2022-12-20T11:51:22.894Z,30.70
2022-12-20T11:54:26.766Z,29.43
2022-12-20T11:57:03.926Z,33.77
2022-12-20T11:59:52.287Z,31.43
2022-12-20T12:02:35.689Z,26.77
2022-12-20T12:05:18.974Z,26.70
2022-12-20T12:07:54.136Z,24.87
2022-12-20T12:10:32.541Z,25.77
2022-12-20T12:13:07.739Z,26.70
2022-12-20T12:15:50.483Z,27.50
2022-12-20T12:18:31.421Z,25.10
2022-12-20T12:21:22.924Z,27.23
2022-12-20T12:24:30.430Z,26.50
2022-12-20T12:26:59.935Z,24.83
2022-12-20T12:29:29.354Z,25.90
2022-12-20T12:32:19.107Z,26.23
2022-12-20T12:34:51.860Z,24.13
2022-12-20T12:37:30.968Z,23.87
2022-12-20T12:40:52.032Z,21.47
2022-12-20T12:43:46.263Z,23.57
2022-12-20T12:46:28.434Z,25.13
2022-12-20T12:49:05.524Z,24.17
2022-12-20T12:51:37.735Z,23.00
2022-12-20T12:54:37.792Z,22.63
2022-12-20T12:57:17.070Z,21.90
2022-12-20T12:59:48.673Z,18.57
2022-12-20T13:02:16.507Z,20.93
2022-12-20T13:05:09.113Z,19.80
2022-12-20T13:07:40.340Z,20.70
2022-12-20T13:10:20.180Z,20.67
2022-12-20T13:13:00.084Z,15.90
2022-12-20T13:15:27.293Z,19.47
2022-12-20T13:18:00.825Z,19.43
2022-12-20T13:20:31.628Z,21.47
2022-12-20T13:23:11.940Z,19.13
2022-12-20T13:25:44.859Z,21.47
2022-12-20T13:28:24.428Z,19.53
2022-12-20T13:31:04.898Z,20.43
2022-12-20T13:33:48.830Z,18.37
2022-12-20T13:36:37.849Z,20.73
2022-12-20T13:39:25.381Z,21.07
2022-12-20T13:42:18.198Z,17.67
2022-12-20T13:44:47.322Z,20.67
2022-12-20T13:47:31.483Z,21.83
2022-12-20T13:50:24.676Z,20.23
2022-12-20T13:52:54.639Z,19.87
2022-12-20T13:55:39.372Z,20.00
2022-12-20T13:58:12.907Z,26.40
2022-12-20T14:00:40.277Z,21.30
2022-12-20T14:03:29.687Z,23.87
2022-12-20T14:06:03.764Z,27.60
2022-12-20T14:08:37.523Z,26.07
2022-12-20T14:11:14.714Z,25.53
2022-12-20T14:13:42.756Z,23.83
2022-12-20T14:16:20.809Z,27.20
2022-12-20T14:18:57.001Z,23.47
2022-12-20T14:21:25.773Z,25.03
2022-12-20T14:23:57.182Z,27.60
2022-12-20T14:26:30.823Z,27.13
2022-12-20T14:29:01.758Z,31.53
2022-12-20T14:31:42.000Z,30.10
2022-12-20T14:34:18.769Z,29.07
2022-12-20T14:36:49.192Z,29.10
2022-12-20T14:39:32.729Z,30.30
2022-12-20T14:42:03.003Z,29.57
2022-12-20T14:44:31.798Z,29.43
2022-12-20T14:47:01.913Z,27.33
2022-12-20T14:49:38.345Z,31.13
2022-12-20T14:52:28.911Z,25.40
2022-12-20T14:55:07.756Z,27.47
2022-12-20T14:57:36.344Z,60.27
2022-12-20T15:00:18.030Z,25.83
2022-12-20T15:02:51.756Z,31.03
2022-12-20T15:05:45.433Z,27.53
2022-12-20T15:08:29.563Z,31.17
2022-12-20T15:11:09.101Z,25.97
2022-12-20T15:13:40.448Z,26.83
2022-12-20T15:16:19.799Z,30.60
2022-12-20T15:18:48.981Z,27.07
2022-12-20T15:21:26.181Z,29.43
2022-12-20T15:23:55.645Z,24.80
2022-12-20T15:26:26.129Z,26.60
2022-12-20T15:28:54.498Z,28.47
2022-12-20T15:31:30.868Z,27.30
2022-12-20T15:34:04.182Z,27.60
2022-12-20T15:36:31.800Z,25.93
2022-12-20T15:39:15.436Z,26.87
2022-12-20T15:41:48.740Z,25.60
2022-12-20T15:44:23.842Z,26.43
2022-12-20T15:47:16.311Z,28.77
2022-12-20T15:49:49.829Z,27.80
2022-12-20T15:52:23.424Z,33.17
2022-12-20T15:54:51.369Z,27.53
2022-12-20T15:57:18.704Z,28.77
2022-12-20T15:59:59.849Z,26.37
2022-12-20T16:02:30.831Z,32.43
2022-12-20T16:04:59.423Z,26.33
2022-12-20T16:07:27.387Z,28.33
2022-12-20T16:09:54.853Z,28.10
2022-12-20T16:12:35.783Z,31.03
2022-12-20T16:15:03.517Z,26.93
2022-12-20T16:17:30.794Z,30.23
2022-12-20T16:19:58.563Z,28.70
2022-12-20T16:22:26.550Z,32.00
2022-12-20T16:24:53.964Z,31.30
2022-12-20T16:27:21.587Z,30.00
2022-12-20T16:29:49.020Z,28.43
2022-12-20T16:32:19.680Z,32.53
2022-12-20T16:34:49.467Z,30.93
2022-12-20T16:37:16.955Z,32.93
2022-12-20T16:39:44.511Z,30.73
2022-12-20T16:42:17.680Z,37.43
2022-12-20T16:44:46.001Z,33.33
2022-12-20T16:47:14.563Z,38.90
2022-12-20T16:49:51.211Z,36.60
2022-12-20T16:52:20.583Z,36.77
2022-12-20T16:54:47.929Z,40.40
2022-12-20T16:57:15.091Z,39.97
2022-12-20T16:59:42.282Z,37.83
2022-12-20T17:02:28.244Z,42.47
2022-12-20T17:04:56.367Z,37.13
2022-12-20T17:07:23.676Z,36.73
2022-12-20T17:09:51.154Z,38.90
2022-12-20T17:12:21.514Z,38.93
2022-12-20T17:14:49.786Z,38.40
2022-12-20T17:17:17.600Z,38.00
2022-12-20T17:19:45.027Z,38.60
2022-12-20T17:24:57.984Z,35.00
2022-12-20T17:27:25.416Z,41.17
2022-12-20T17:29:52.769Z,40.57
2022-12-20T17:32:23.776Z,43.43
2022-12-20T17:34:51.830Z,40.40
2022-12-20T17:37:19.029Z,38.60
2022-12-20T17:39:46.318Z,39.53
2022-12-20T17:42:14.567Z,44.43
2022-12-20T17:44:41.732Z,39.10
2022-12-20T17:47:09.198Z,38.93
2022-12-20T17:49:36.476Z,41.53
2022-12-20T17:52:04.133Z,38.57
2022-12-20T17:54:38.985Z,41.07
2022-12-20T17:57:13.504Z,44.17
2022-12-20T17:59:40.709Z,39.27
2022-12-20T18:02:23.264Z,38.67
2022-12-20T18:04:51.596Z,36.67
2022-12-20T18:07:18.913Z,37.13
2022-12-20T18:09:49.670Z,38.20
2022-12-20T18:12:17.656Z,33.27
2022-12-20T18:14:45.200Z,35.97
2022-12-20T18:17:12.752Z,39.33
2022-12-20T18:19:40.887Z,39.63
2022-12-20T18:22:08.157Z,48.87
2022-12-20T18:24:35.473Z,49.03
2022-12-20T18:27:02.690Z,43.27
2022-12-20T18:29:29.842Z,46.40
2022-12-20T18:31:57.413Z,39.83
2022-12-20T18:34:24.748Z,45.40
2022-12-20T18:36:51.998Z,42.03
2022-12-20T18:39:19.630Z,41.90
2022-12-20T18:41:48.380Z,40.70
2022-12-20T18:44:15.688Z,39.70
2022-12-20T18:46:42.805Z,39.43
2022-12-20T18:49:10.165Z,41.47
2022-12-20T18:51:37.552Z,36.70
2022-12-20T18:54:07.890Z,34.57
2022-12-20T18:56:37.979Z,36.80
2022-12-20T18:59:14.169Z,34.87
2022-12-20T19:01:43.489Z,32.73
2022-12-20T19:04:11.949Z,33.67
2022-12-20T19:06:40.079Z,32.17
2022-12-20T19:09:11.435Z,38.10
2022-12-20T19:11:40.168Z,36.83
2022-12-20T19:14:08.029Z,40.93
2022-12-20T19:16:36.121Z,37.17
2022-12-20T19:19:04.359Z,35.03
2022-12-20T19:21:35.070Z,33.27
2022-12-20T19:24:06.992Z,33.93
2022-12-20T19:26:37.047Z,35.33
2022-12-20T19:29:05.570Z,33.90
2022-12-20T19:31:45.543Z,38.20
2022-12-20T19:34:13.514Z,33.07
2022-12-20T19:36:45.389Z,35.57
2022-12-20T19:39:23.601Z,38.53
2022-12-20T19:44:40.452Z,37.13
2022-12-20T19:47:07.857Z,34.27
2022-12-20T19:49:38.265Z,31.87
2022-12-20T19:52:06.493Z,34.63
2022-12-20T19:54:35.118Z,33.23
2022-12-20T19:57:02.498Z,33.93
2022-12-20T19:59:30.788Z,31.87
2022-12-20T20:01:58.167Z,33.00
2022-12-20T20:04:25.403Z,35.63
2022-12-20T20:06:52.555Z,35.27
2022-12-20T20:09:19.691Z,30.93
2022-12-20T20:11:46.902Z,33.10
2022-12-20T20:14:14.566Z,35.17
2022-12-20T20:16:41.738Z,37.27
2022-12-20T20:19:09.641Z,40.13
2022-12-20T20:21:37.830Z,35.13
2022-12-20T20:24:05.673Z,38.07
2022-12-20T20:26:32.895Z,38.73
2022-12-20T20:29:02.141Z,36.90
2022-12-20T20:31:29.510Z,35.27
2022-12-20T20:34:00.790Z,37.33
2022-12-20T20:36:29.521Z,41.13
2022-12-20T20:38:57.208Z,38.30
2022-12-20T20:41:24.792Z,39.77
2022-12-20T20:43:52.139Z,38.20
2022-12-20T20:46:19.421Z,36.63
2022-12-20T20:48:46.760Z,34.87
2022-12-20T20:51:13.992Z,34.20
2022-12-20T20:53:41.395Z,38.33
2022-12-20T20:56:09.673Z,35.73
2022-12-20T20:58:37.858Z,33.90
2022-12-20T21:01:10.527Z,35.43
2022-12-20T21:03:40.017Z,33.00
2022-12-20T21:08:56.871Z,33.23
2022-12-20T21:11:24.459Z,38.53
2022-12-20T21:13:53.730Z,39.13
2022-12-20T21:16:22.337Z,35.40
2022-12-20T21:18:57.013Z,35.10
2022-12-20T21:21:26.136Z,35.67
2022-12-20T21:23:54.310Z,35.13
2022-12-20T21:26:23.619Z,33.20
2022-12-20T21:28:51.747Z,37.43
2022-12-20T21:31:19.842Z,41.93
2022-12-20T21:33:47.276Z,35.53
2022-12-20T21:36:18.357Z,40.47
2022-12-20T21:38:51.110Z,39.13
2022-12-20T21:41:20.252Z,44.10
2022-12-20T21:43:47.594Z,38.00
2022-12-20T21:46:15.450Z,41.20
2022-12-20T21:48:44.583Z,41.10
2022-12-20T21:51:19.810Z,43.33
2022-12-20T21:53:57.803Z,42.80
2022-12-20T21:56:27.673Z,45.03
2022-12-20T21:58:55.895Z,51.77
2022-12-20T22:01:25.931Z,45.90
2022-12-20T22:03:59.870Z,47.83
2022-12-20T22:06:28.130Z,51.40
2022-12-20T22:08:59.784Z,48.63
2022-12-20T22:11:27.811Z,51.23
2022-12-20T22:13:56.020Z,47.27
2022-12-20T22:16:26.469Z,59.17
2022-12-20T22:18:56.304Z,58.50
2022-12-20T22:21:27.823Z,55.17
2022-12-20T22:23:56.717Z,59.87
2022-12-20T22:26:27.515Z,60.93
2022-12-20T22:29:01.165Z,65.30
2022-12-20T22:31:28.728Z,70.93
2022-12-20T22:33:57.185Z,65.17
2022-12-20T22:36:24.995Z,66.67
2022-12-20T22:38:53.764Z,66.90
2022-12-20T22:41:26.504Z,73.20
2022-12-20T22:43:54.371Z,73.23
2022-12-20T22:46:22.006Z,71.77
2022-12-20T22:48:49.206Z,71.03
2022-12-20T22:51:25.917Z,72.30
2022-12-20T22:54:02.339Z,82.03
2022-12-20T22:56:29.943Z,86.37
2022-12-20T22:58:57.184Z,80.90
2022-12-20T23:01:25.059Z,84.77
2022-12-20T23:03:52.460Z,82.67
2022-12-20T23:06:21.527Z,87.10
2022-12-20T23:08:49.355Z,79.27
2022-12-20T23:11:46.847Z,90.30
2022-12-20T23:14:36.381Z,78.07
2022-12-20T23:17:06.350Z,76.00
2022-12-20T23:19:52.406Z,81.43
2022-12-20T23:22:40.324Z,86.80
2022-12-20T23:25:19.546Z,80.13
2022-12-20T23:27:48.668Z,86.37
2022-12-20T23:30:21.151Z,91.00
2022-12-20T23:32:49.027Z,81.17
2022-12-20T23:35:19.580Z,83.50
2022-12-20T23:37:47.151Z,74.57
2022-12-20T23:40:16.185Z,91.97
2022-12-20T23:42:43.982Z,74.83
2022-12-20T23:45:11.753Z,78.43
2022-12-20T23:47:38.839Z,102.83
2022-12-20T23:50:06.892Z,83.20
2022-12-20T23:52:33.981Z,74.37
2022-12-20T23:55:01.028Z,81.40
2022-12-20T23:57:31.527Z,76.57
2022-12-20T23:59:58.885Z,67.43
